Time;durP1;ratioP1;P1;durP2;ratioP2;P2;SDS_P1;SDS_P2;PMS_P1;PMS_P2;Temp;Humidity;BMP_temperature;BMP_pressure;BME280_temperature;BME280_humidity;BME280_pressure;Samples;Min_cycle;Max_cycle;Signal;HPM_P1;HPM_P2
2023/05/18 00:02:20;;;;;;;9.38;2.90;;;;;;;7.38;61.77;102398.53;5080224;28;20127;-59
2023/05/18 00:04:47;;;;;;;12.65;4.22;;;;;;;7.34;62.32;102402.94;5071683;28;20040;-59
2023/05/18 00:07:14;;;;;;;19.10;4.15;;;;;;;7.31;62.45;102404.72;5077446;28;20424;-59
2023/05/18 00:09:40;;;;;;;12.30;2.92;;;;;;;7.32;62.53;102409.09;5071894;28;20072;-59
2023/05/18 00:12:08;;;;;;;8.85;3.20;;;;;;;7.32;63.42;102410.00;5072453;28;20044;-59
2023/05/18 00:14:36;;;;;;;14.25;3.88;;;;;;;7.34;63.09;102407.34;5068822;28;20064;-59
2023/05/18 00:17:03;;;;;;;13.40;3.45;;;;;;;7.30;63.30;102405.59;5072057;28;20048;-59
2023/05/18 00:19:30;;;;;;;9.98;3.13;;;;;;;7.28;63.79;102402.13;5071217;28;20152;-59
2023/05/18 00:21:56;;;;;;;12.55;3.38;;;;;;;7.30;63.92;102405.59;5071553;28;20622;-59
2023/05/18 00:24:23;;;;;;;14.07;3.22;;;;;;;7.28;63.79;102410.88;5069730;28;20090;-59
2023/05/18 00:26:50;;;;;;;9.75;3.35;;;;;;;7.20;64.51;102409.16;5072609;28;20479;-59
2023/05/18 00:29:16;;;;;;;16.08;3.03;;;;;;;7.14;65.27;102410.97;5071083;28;20412;-59
2023/05/18 00:31:44;;;;;;;8.63;3.08;;;;;;;7.14;65.36;102410.97;5072084;28;20048;-59
2023/05/18 00:34:12;;;;;;;15.23;4.07;;;;;;;7.09;65.30;102411.84;5054486;28;20040;-59
2023/05/18 00:36:39;;;;;;;10.82;2.80;;;;;;;7.06;65.60;102418.00;5070504;28;20519;-59
2023/05/18 00:39:11;;;;;;;16.40;3.17;;;;;;;7.03;65.46;102418.00;5076458;28;20040;-59
2023/05/18 00:41:37;;;;;;;12.77;2.60;;;;;;;7.03;66.06;102423.28;5071103;28;20372;-59
2023/05/18 00:44:04;;;;;;;7.28;2.75;;;;;;;6.94;65.69;102420.69;5071631;28;20048;-59
2023/05/18 00:46:31;;;;;;;17.60;4.35;;;;;;;6.89;66.70;102419.81;5072311;28;20080;-59
2023/05/18 00:49:00;;;;;;;11.85;2.58;;;;;;;6.84;66.67;102424.22;5072902;28;20052;-59
2023/05/18 00:51:27;;;;;;;13.82;3.22;;;;;;;6.80;66.63;102426.84;5058512;28;20053;-59
2023/05/18 00:53:55;;;;;;;14.00;3.35;;;;;;;6.74;66.46;102426.88;5071302;28;20076;-59
2023/05/18 00:56:22;;;;;;;11.55;3.70;;;;;;;6.69;66.55;102427.78;5069578;28;20063;-59
2023/05/18 00:58:54;;;;;;;21.33;3.65;;;;;;;6.68;66.91;102426.88;5071295;28;20053;-59
2023/05/18 01:01:29;;;;;;;10.85;4.05;;;;;;;6.66;66.97;102428.66;5071316;28;20110;-59
2023/05/18 01:04:00;;;;;;;12.75;3.40;;;;;;;6.60;67.49;102423.41;5070023;28;20048;-59
2023/05/18 01:06:31;;;;;;;;;;;;;;;6.57;67.99;102439.16;5070854;28;20048;-59
2023/05/18 01:09:01;;;;;;;10.55;3.38;;;;;;;6.55;67.40;102439.16;5052521;28;20003;-59
2023/05/18 01:11:43;;;;;;;15.50;3.25;;;;;;;6.54;67.64;102441.78;5069749;28;20048;-59
2023/05/18 01:14:19;;;;;;;12.60;3.47;;;;;;;6.53;67.92;102447.94;5048651;28;20373;-59
2023/05/18 01:17:33;;;;;;;11.13;3.05;;;;;;;6.52;68.04;102446.19;5067631;28;20140;-59
2023/05/18 01:20:10;;;;;;;13.82;3.30;;;;;;;6.48;68.35;102444.47;5003126;28;20053;-59
2023/05/18 01:23:12;;;;;;;18.70;3.17;;;;;;;6.45;68.71;102444.47;5061729;28;20124;-59
2023/05/18 01:25:47;;;;;;;;;;;;;;;6.41;68.47;102444.47;5085179;28;20147;-59
2023/05/18 01:28:16;;;;;;;11.85;3.45;;;;;;;6.36;68.23;102440.97;5068925;28;20337;-59
2023/05/18 01:30:43;;;;;;;12.63;3.00;;;;;;;6.35;68.75;102439.22;5067990;28;20644;-59
2023/05/18 01:33:12;;;;;;;9.80;2.67;;;;;;;6.34;68.77;102440.09;5066369;28;20049;-59
2023/05/18 01:35:40;;;;;;;9.45;3.13;;;;;;;6.35;69.02;102449.72;5069990;28;20041;-59
2023/05/18 01:38:07;;;;;;;9.98;3.17;;;;;;;6.33;69.07;102443.59;5070943;28;20047;-60
2023/05/18 01:40:44;;;;;;;9.45;2.55;;;;;;;6.26;68.85;102449.75;5066794;28;20048;-59
2023/05/18 01:43:17;;;;;;;8.88;2.95;;;;;;;6.26;69.36;102449.75;5060366;28;20361;-60
2023/05/18 01:45:47;;;;;;;18.00;3.90;;;;;;;6.25;69.82;102451.47;5070751;28;20053;-61
2023/05/18 01:48:19;;;;;;;13.02;3.45;;;;;;;6.26;69.47;102452.38;5066819;28;20488;-59
2023/05/18 01:50:47;;;;;;;21.17;3.20;;;;;;;6.22;69.27;102453.22;5051366;28;20519;-60
2023/05/18 01:53:26;;;;;;;15.93;2.85;;;;;;;6.21;69.83;102451.47;5070303;28;20060;-59
2023/05/18 01:55:54;;;;;;;15.52;2.83;;;;;;;6.16;69.45;102453.22;5068430;28;20045;-59
2023/05/18 01:58:22;;;;;;;10.93;3.25;;;;;;;6.15;69.47;102448.88;5071213;28;20071;-59
2023/05/18 02:00:50;;;;;;;14.43;3.03;;;;;;;6.13;69.70;102453.22;5073310;28;20052;-59
2023/05/18 02:03:16;;;;;;;16.70;3.05;;;;;;;6.12;69.89;102447.09;5073828;28;20041;-59
2023/05/18 02:05:43;;;;;;;11.80;3.30;;;;;;;6.07;70.64;102462.84;5072867;28;20385;-59
2023/05/18 02:08:10;;;;;;;12.90;3.00;;;;;;;6.05;70.90;102461.97;5056011;28;20059;-59
2023/05/18 02:10:36;;;;;;;12.68;3.70;;;;;;;6.01;70.50;102457.59;5056420;28;20468;-59
2023/05/18 02:13:03;;;;;;;12.68;3.58;;;;;;;6.04;70.62;102454.09;5077909;28;20044;-59
2023/05/18 02:15:30;;;;;;;12.27;3.10;;;;;;;6.01;70.62;102460.22;5077585;28;20127;-59
2023/05/18 02:17:56;;;;;;;12.40;2.60;;;;;;;5.99;70.07;102466.34;5083292;28;20140;-59
2023/05/18 02:20:23;;;;;;;10.93;2.90;;;;;;;5.99;71.18;102455.84;5074219;28;20079;-59
2023/05/18 02:22:50;;;;;;;15.75;4.30;;;;;;;5.99;70.75;102461.09;5079497;28;20055;-59
2023/05/18 02:25:17;;;;;;;9.10;3.17;;;;;;;5.99;71.22;102456.72;5077364;28;20054;-59
2023/05/18 02:27:44;;;;;;;12.77;3.28;;;;;;;5.99;71.33;102461.97;5080033;28;20076;-59
2023/05/18 02:30:11;;;;;;;11.57;3.92;;;;;;;5.92;71.46;102457.56;5075412;28;20080;-59
2023/05/18 02:32:41;;;;;;;16.27;3.45;;;;;;;5.94;72.07;102463.69;5074832;28;20106;-59
2023/05/18 02:35:09;;;;;;;11.82;3.10;;;;;;;5.88;71.39;102464.56;5072084;28;20036;-59
2023/05/18 02:37:38;;;;;;;14.90;3.40;;;;;;;5.89;72.05;102462.81;5073826;28;20066;-59
2023/05/18 02:40:09;;;;;;;13.45;3.30;;;;;;;5.81;71.67;102467.16;5074480;28;20049;-60
2023/05/18 02:42:36;;;;;;;13.43;4.20;;;;;;;5.77;72.05;102465.41;5073980;28;20052;-59
2023/05/18 02:45:03;;;;;;;6.85;2.85;;;;;;;5.77;71.95;102465.41;5056856;28;20516;-59
2023/05/18 02:47:29;;;;;;;19.73;4.20;;;;;;;5.72;71.94;102467.16;5073847;28;20041;-59
2023/05/18 02:49:56;;;;;;;11.10;3.97;;;;;;;5.78;72.58;102472.41;5076540;28;20075;-59
2023/05/18 02:52:22;;;;;;;10.57;3.47;;;;;;;5.77;71.91;102475.91;5077846;28;20048;-59
2023/05/18 02:54:49;;;;;;;14.38;3.30;;;;;;;5.74;72.25;102475.88;5075337;28;20051;-59
2023/05/18 02:57:16;;;;;;;8.57;3.33;;;;;;;5.72;72.21;102472.41;5072665;28;20056;-59
2023/05/18 02:59:42;;;;;;;12.75;3.67;;;;;;;5.73;72.36;102476.78;5072569;28;20082;-59
2023/05/18 03:02:13;;;;;;;14.68;4.15;;;;;;;5.72;72.06;102472.41;5072674;28;20123;-59
2023/05/18 03:04:40;;;;;;;12.38;3.80;;;;;;;5.75;72.20;102477.66;5072663;28;20040;-59
2023/05/18 03:07:07;;;;;;;9.77;3.30;;;;;;;5.76;72.10;102474.16;5073617;28;20510;-59
2023/05/18 03:09:33;;;;;;;11.60;2.90;;;;;;;5.66;72.34;102479.38;5069684;28;20136;-59
2023/05/18 03:12:00;;;;;;;8.38;3.22;;;;;;;5.65;72.25;102475.00;5073319;28;20106;-59
2023/05/18 03:14:27;;;;;;;9.60;2.90;;;;;;;5.61;72.12;102481.13;5068176;28;20080;-59
2023/05/18 03:16:56;;;;;;;13.57;2.90;;;;;;;5.58;72.78;102486.34;5073280;28;20128;-59
2023/05/18 03:19:23;;;;;;;8.25;2.45;;;;;;;5.51;72.51;102484.59;5087272;28;20487;-59
2023/05/18 03:21:50;;;;;;;12.20;3.58;;;;;;;5.51;72.62;102480.22;5073485;28;20117;-59
2023/05/18 03:24:16;;;;;;;10.60;3.53;;;;;;;5.47;72.53;102488.06;5072444;28;20054;-59
2023/05/18 03:26:43;;;;;;;12.88;3.38;;;;;;;5.43;72.44;102483.69;5055406;28;20636;-59
2023/05/18 03:29:12;;;;;;;13.23;3.83;;;;;;;5.47;72.82;102488.06;5072539;28;20153;-59
2023/05/18 03:31:39;;;;;;;10.75;2.53;;;;;;;5.52;73.39;102486.34;5073378;28;20045;-59
2023/05/18 03:34:05;;;;;;;16.45;2.80;;;;;;;5.57;72.84;102487.22;5072498;28;20471;-59
2023/05/18 03:36:32;;;;;;;14.85;3.70;;;;;;;5.59;72.86;102481.97;5052330;28;20044;-59
2023/05/18 03:38:58;;;;;;;15.95;3.60;;;;;;;5.59;72.60;102481.97;5066791;28;20430;-58
2023/05/18 03:41:25;;;;;;;12.57;3.33;;;;;;;5.66;72.52;102489.00;5064471;28;20524;-60
2023/05/18 03:43:52;;;;;;;9.20;3.05;;;;;;;5.69;72.46;102495.13;5072235;28;20048;-60
2023/05/18 03:46:18;;;;;;;13.07;3.03;;;;;;;5.72;72.45;102488.13;5071478;28;20044;-59
2023/05/18 03:48:45;;;;;;;8.27;2.63;;;;;;;5.73;72.64;102485.53;5072380;28;20384;-59
2023/05/18 03:51:11;;;;;;;11.18;3.35;;;;;;;5.68;72.74;102488.13;5055446;28;20055;-60
2023/05/18 03:53:38;;;;;;;12.38;3.28;;;;;;;5.69;72.77;102489.88;5072520;28;20059;-59
2023/05/18 03:56:05;;;;;;;8.35;2.75;;;;;;;5.75;72.59;102493.41;5070747;28;20041;-59
2023/05/18 03:58:31;;;;;;;10.35;2.80;;;;;;;5.81;72.30;102494.28;5072049;28;20050;-59
2023/05/18 04:00:59;;;;;;;11.13;2.80;;;;;;;5.81;72.95;102498.66;5072798;28;20071;-59
2023/05/18 04:03:26;;;;;;;6.82;2.60;;;;;;;5.78;72.89;102496.03;5070304;28;20440;-59
2023/05/18 04:05:53;;;;;;;6.78;2.50;;;;;;;5.75;72.67;102501.25;5072118;28;20040;-59
2023/05/18 04:08:19;;;;;;;14.73;3.70;;;;;;;5.80;73.19;102507.41;5071576;28;20071;-60
2023/05/18 04:10:46;;;;;;;13.40;2.95;;;;;;;5.82;73.07;102505.66;5072687;28;20131;-59
2023/05/18 04:13:12;;;;;;;10.80;2.40;;;;;;;5.84;73.00;102510.03;5053941;28;20048;-59
2023/05/18 04:15:39;;;;;;;8.15;2.95;;;;;;;5.84;72.77;102514.41;5071274;28;20047;-59
2023/05/18 04:18:07;;;;;;;12.45;2.40;;;;;;;5.84;73.19;102511.78;5072188;28;20117;-59
2023/05/18 04:20:33;;;;;;;13.32;3.25;;;;;;;5.89;72.87;102510.91;5072285;28;20049;-59
2023/05/18 04:23:00;;;;;;;13.90;3.70;;;;;;;5.91;73.21;102510.91;5070759;28;20476;-59
2023/05/18 04:25:26;;;;;;;15.07;2.60;;;;;;;5.92;73.13;102511.78;5070847;28;20124;-59
2023/05/18 04:27:55;;;;;;;6.30;2.50;;;;;;;5.95;72.72;102517.94;5087119;28;20048;-59
2023/05/18 04:30:22;;;;;;;8.88;2.45;;;;;;;6.02;72.63;102518.88;5073001;28;20094;-59
2023/05/18 04:32:49;;;;;;;5.90;2.70;;;;;;;6.02;72.17;102517.09;5071631;28;20082;-59
2023/05/18 04:35:17;;;;;;;12.90;3.30;;;;;;;6.07;72.15;102522.38;5070568;28;20047;-59
2023/05/18 04:37:44;;;;;;;10.10;2.88;;;;;;;6.11;72.41;102518.00;5075890;28;20052;-59
2023/05/18 04:40:15;;;;;;;10.60;2.53;;;;;;;6.22;72.47;102532.00;5071723;28;20052;-59
2023/05/18 04:42:46;;;;;;;12.60;3.35;;;;;;;6.23;71.90;102520.63;5072234;28;20044;-59
2023/05/18 04:45:15;;;;;;;9.07;2.45;;;;;;;6.30;71.63;102529.41;5071982;28;20071;-59
2023/05/18 04:47:45;;;;;;;11.75;2.88;;;;;;;6.32;71.56;102533.75;5071887;28;20048;-60
2023/05/18 04:50:16;;;;;;;20.73;4.43;;;;;;;6.42;71.34;102532.91;5070906;28;20084;-60
2023/05/18 04:52:48;;;;;;;10.57;3.05;;;;;;;6.50;70.28;102539.91;5068833;28;20701;-59
2023/05/18 04:55:21;;;;;;;7.25;2.72;;;;;;;6.52;70.98;102540.75;5070984;28;20135;-60
2023/05/18 04:57:49;;;;;;;14.38;3.90;;;;;;;6.57;71.54;102536.38;5052744;28;20062;-59
2023/05/18 05:00:17;;;;;;;16.42;2.35;;;;;;;6.66;71.13;102543.41;5071133;28;20040;-60
2023/05/18 05:02:43;;;;;;;6.85;2.55;;;;;;;6.69;71.27;102533.75;5072229;28;20377;-58
2023/05/18 05:05:10;;;;;;;7.60;3.05;;;;;;;6.76;70.69;102535.50;5071796;28;20360;-59
2023/05/18 05:07:37;;;;;;;15.05;2.85;;;;;;;6.83;70.67;102535.50;5070714;28;20048;-59
2023/05/18 05:10:04;;;;;;;20.85;2.75;;;;;;;6.96;70.54;102531.94;5071229;28;20122;-59
2023/05/18 05:12:30;;;;;;;7.47;2.47;;;;;;;7.00;70.30;102525.81;5071755;28;20131;-59
2023/05/18 05:14:57;;;;;;;7.32;2.13;;;;;;;7.02;70.09;102526.69;5070984;28;20088;-60
2023/05/18 05:17:24;;;;;;;12.65;2.28;;;;;;;7.07;69.59;102537.19;5071025;28;20132;-59
2023/05/18 05:19:50;;;;;;;8.15;2.58;;;;;;;7.14;69.62;102537.19;5071359;28;20059;-59
2023/05/18 05:22:18;;;;;;;6.20;2.45;;;;;;;7.16;69.27;102543.31;5071503;28;20044;-59
2023/05/18 05:24:45;;;;;;;12.63;2.40;;;;;;;7.21;68.99;102547.66;5052207;28;20052;-60
2023/05/18 05:27:12;;;;;;;9.40;2.55;;;;;;;7.27;69.13;102547.66;5072044;28;20064;-58
2023/05/18 05:29:38;;;;;;;9.07;3.08;;;;;;;7.33;68.78;102542.38;5071092;28;20131;-60
2023/05/18 05:32:05;;;;;;;9.05;2.67;;;;;;;7.35;67.86;102540.59;5071621;28;20103;-59
2023/05/18 05:34:32;;;;;;;13.50;2.95;;;;;;;7.37;68.32;102549.38;5069400;28;20131;-60
2023/05/18 05:36:58;;;;;;;10.35;2.72;;;;;;;7.43;67.93;102551.13;5075530;28;20136;-60
2023/05/18 05:39:25;;;;;;;11.93;2.47;;;;;;;7.40;67.73;102559.88;5080391;28;20571;-59
2023/05/18 05:41:51;;;;;;;15.82;2.42;;;;;;;7.40;67.05;102554.63;5078204;28;20048;-61
2023/05/18 05:44:18;;;;;;;12.60;2.88;;;;;;;7.28;66.95;102557.31;5090733;28;20245;-59
2023/05/18 05:46:45;;;;;;;14.27;3.55;;;;;;;7.39;67.43;102560.78;5086327;28;20572;-61
2023/05/18 05:49:11;;;;;;;10.60;1.95;;;;;;;7.52;67.37;102564.25;5070343;28;20066;-59
2023/05/18 05:51:37;;;;;;;17.83;4.85;;;;;;;7.58;67.20;102568.59;5080010;28;20395;-60
2023/05/18 05:54:04;;;;;;;13.02;2.70;;;;;;;7.60;67.32;102566.81;5080156;28;20047;-59
2023/05/18 05:56:31;;;;;;;16.40;3.40;;;;;;;7.65;66.82;102567.66;5079861;28;20502;-59
2023/05/18 05:58:57;;;;;;;12.88;3.38;;;;;;;7.74;67.22;102572.91;5082618;28;20131;-60
2023/05/18 06:01:24;;;;;;;7.65;2.55;;;;;;;7.80;66.26;102569.38;5072875;28;20515;-59
2023/05/18 06:03:51;;;;;;;9.52;2.63;;;;;;;7.85;66.12;102560.56;5078188;28;20052;-59
2023/05/18 06:06:17;;;;;;;8.38;2.30;;;;;;;7.97;65.91;102561.38;5078570;28;20047;-61
2023/05/18 06:08:44;;;;;;;15.90;2.60;;;;;;;8.06;65.26;102556.06;5073325;28;20361;-59
2023/05/18 06:11:11;;;;;;;22.05;3.28;;;;;;;8.15;64.97;102560.41;5076377;28;20079;-60
2023/05/18 06:13:37;;;;;;;9.30;2.40;;;;;;;8.24;64.98;102563.84;5073384;28;20056;-59
2023/05/18 06:16:04;;;;;;;8.40;2.15;;;;;;;8.19;64.31;102560.38;5077872;28;20037;-60
2023/05/18 06:18:31;;;;;;;12.43;3.58;;;;;;;8.20;63.97;102554.19;5074251;28;20106;-59
2023/05/18 06:20:57;;;;;;;10.02;2.70;;;;;;;8.37;63.95;102556.72;5076035;28;20472;-58
2023/05/18 06:23:24;;;;;;;12.32;3.40;;;;;;;8.50;63.81;102562.81;5081507;28;20053;-58
2023/05/18 06:25:52;;;;;;;16.38;2.85;;;;;;;8.57;62.84;102558.38;5074339;28;20423;-58
2023/05/18 06:28:18;;;;;;;11.18;2.13;;;;;;;8.71;62.91;102558.22;5054693;28;20105;-58
2023/05/18 06:30:45;;;;;;;10.57;3.15;;;;;;;8.82;62.77;102559.88;5060819;28;20049;-58
2023/05/18 06:33:12;;;;;;;10.90;2.22;;;;;;;8.80;62.03;102564.28;5063323;28;20040;-58
2023/05/18 06:35:40;;;;;;;14.52;3.50;;;;;;;8.90;62.00;102557.16;5075300;28;20396;-58
2023/05/18 06:38:07;;;;;;;14.57;2.83;;;;;;;9.02;61.12;102560.56;5078512;28;20530;-58
2023/05/18 06:40:34;;;;;;;11.25;2.75;;;;;;;9.12;61.09;102563.09;5074258;28;20059;-58
2023/05/18 06:43:00;;;;;;;15.73;3.42;;;;;;;9.26;61.13;102565.59;5072995;28;20465;-59
2023/05/18 06:45:27;;;;;;;23.85;2.45;;;;;;;9.35;60.69;102568.13;5073280;28;20494;-60
2023/05/18 06:47:54;;;;;;;13.05;2.80;;;;;;;9.34;60.30;102558.44;5084751;28;20055;-59
2023/05/18 06:50:20;;;;;;;15.45;2.80;;;;;;;9.42;59.39;102555.72;5056810;28;20080;-58
2023/05/18 06:52:47;;;;;;;8.32;3.78;;;;;;;9.57;59.49;102557.31;5074157;28;20048;-60
2023/05/18 06:55:14;;;;;;;15.40;2.95;;;;;;;9.73;59.96;102558.84;5073657;28;20048;-59
2023/05/18 06:57:40;;;;;;;7.63;2.63;;;;;;;9.92;59.80;102567.41;5085327;28;20136;-59
2023/05/18 07:00:07;;;;;;;19.38;2.97;;;;;;;10.15;58.90;102567.94;5073800;28;20421;-59
2023/05/18 07:02:35;;;;;;;12.63;2.60;;;;;;;10.18;56.99;102557.34;5082776;28;20083;-59
2023/05/18 07:05:04;;;;;;;14.23;3.00;;;;;;;10.35;55.76;102555.34;5083011;28;20047;-60
2023/05/18 07:07:30;;;;;;;19.98;3.58;;;;;;;10.32;58.33;102558.03;5086844;28;20196;-60
2023/05/18 07:09:57;;;;;;;12.18;2.40;;;;;;;10.44;57.43;102554.31;5075229;28;20095;-59
2023/05/18 07:12:25;;;;;;;12.93;2.03;;;;;;;10.26;57.68;102560.72;5073574;28;20052;-60
2023/05/18 07:14:52;;;;;;;8.52;2.92;;;;;;;10.33;57.52;102556.25;5075393;28;20139;-60
2023/05/18 07:17:18;;;;;;;8.00;2.58;;;;;;;10.56;57.07;102555.88;5069105;28;20105;-59
2023/05/18 07:19:45;;;;;;;7.50;2.08;;;;;;;10.68;56.76;102563.63;5075507;28;20461;-59
2023/05/18 07:22:12;;;;;;;6.05;2.22;;;;;;;10.68;56.15;102558.31;5057739;28;20053;-59
2023/05/18 07:24:38;;;;;;;9.07;1.83;;;;;;;10.75;54.55;102557.31;5071903;28;20087;-59
2023/05/18 07:27:05;;;;;;;9.07;2.15;;;;;;;10.82;54.36;102553.66;5072291;28;20036;-60
2023/05/18 07:29:32;;;;;;;9.15;2.25;;;;;;;10.74;53.03;102557.34;5072089;28;20379;-60
2023/05/18 07:31:58;;;;;;;4.90;1.65;;;;;;;10.92;52.34;102556.13;5052975;28;20055;-60
2023/05/18 07:34:26;;;;;;;9.32;2.00;;;;;;;10.75;53.23;102544.09;5065997;28;20053;-60
2023/05/18 07:36:52;;;;;;;10.57;3.38;;;;;;;10.83;52.39;102555.41;5067534;28;20492;-60
2023/05/18 07:39:19;;;;;;;5.68;1.67;;;;;;;10.96;51.55;102555.19;5072080;28;20075;-59
2023/05/18 07:41:47;;;;;;;8.70;1.70;;;;;;;11.06;51.33;102559.41;5057711;28;20095;-59
2023/05/18 07:44:14;;;;;;;10.15;1.90;;;;;;;11.24;50.19;102559.97;5070236;28;20091;-59
2023/05/18 07:46:42;;;;;;;13.50;2.97;;;;;;;11.13;50.88;102558.41;5066308;28;20441;-59
2023/05/18 07:49:08;;;;;;;10.40;1.92;;;;;;;11.28;49.99;102553.69;5071617;28;20052;-60
2023/05/18 07:51:35;;;;;;;6.30;2.10;;;;;;;11.39;50.04;102557.00;5071327;28;20052;-59
2023/05/18 07:54:02;;;;;;;6.90;2.10;;;;;;;11.24;49.82;102552.88;5049141;28;20119;-59
2023/05/18 07:56:29;;;;;;;17.25;2.15;;;;;;;11.44;49.92;102554.25;5071429;28;20488;-59
2023/05/18 07:58:55;;;;;;;9.90;2.15;;;;;;;11.79;49.49;102558.81;5071231;28;20404;-60
2023/05/18 08:01:26;;;;;;;7.25;1.83;;;;;;;11.60;49.95;102554.81;5072594;28;20045;-60
2023/05/18 08:03:53;;;;;;;9.27;1.80;;;;;;;11.93;49.54;102548.81;5072309;28;20050;-60
2023/05/18 08:06:20;;;;;;;9.15;2.70;;;;;;;12.14;47.67;102562.47;5070940;28;20278;-61
2023/05/18 08:08:47;;;;;;;12.38;2.30;;;;;;;12.00;48.56;102549.53;5068661;28;20053;-58
2023/05/18 08:11:13;;;;;;;13.27;2.38;;;;;;;12.43;47.54;102558.25;5071979;28;20109;-60
2023/05/18 08:13:40;;;;;;;11.07;2.40;;;;;;;12.66;43.70;102555.88;5073816;28;20056;-59
2023/05/18 08:16:07;;;;;;;7.88;1.40;;;;;;;12.72;43.88;102549.56;5072366;28;20427;-58
2023/05/18 08:18:38;;;;;;;11.40;2.72;;;;;;;12.61;44.32;102555.13;5071630;28;20057;-58
2023/05/18 08:21:08;;;;;;;12.48;2.05;;;;;;;12.46;45.36;102558.19;5072776;28;20055;-61
2023/05/18 08:23:36;;;;;;;9.48;2.33;;;;;;;12.79;45.09;102561.72;5070788;28;20368;-59
2023/05/18 08:26:03;;;;;;;9.73;2.05;;;;;;;12.34;46.57;102558.47;5053679;28;20045;-60
2023/05/18 08:28:30;;;;;;;12.38;2.45;;;;;;;12.74;46.79;102565.44;5064160;28;20067;-60
2023/05/18 08:30:57;;;;;;;10.05;2.25;;;;;;;13.25;45.24;102556.09;5067662;28;20078;-59
2023/05/18 08:33:24;;;;;;;11.38;1.58;;;;;;;13.38;44.36;102560.19;5070463;28;20098;-59
2023/05/18 08:35:51;;;;;;;11.98;2.45;;;;;;;13.12;45.70;102563.53;5072016;28;20565;-59
2023/05/18 08:38:18;;;;;;;8.68;3.08;;;;;;;13.07;45.26;102560.13;5072136;28;20082;-59
2023/05/18 08:41:06;;;;;;;8.90;2.03;;;;;;;12.67;45.36;102562.94;5072616;28;20053;-59
2023/05/18 08:43:37;;;;;;;12.50;2.17;;;;;;;13.00;46.05;102549.69;5071143;28;20569;-59
2023/05/18 08:46:12;;;;;;;9.50;2.17;;;;;;;13.00;44.95;102557.66;5072059;28;20055;-59
2023/05/18 08:48:43;;;;;;;8.35;1.52;;;;;;;12.99;44.37;102553.22;5054225;28;20048;-59
2023/05/18 08:51:10;;;;;;;7.05;2.08;;;;;;;12.85;44.44;102550.97;5072999;28;20048;-59
2023/05/18 08:53:38;;;;;;;7.88;2.35;;;;;;;13.02;45.29;102553.16;5071514;28;20063;-59
2023/05/18 08:56:06;;;;;;;8.85;1.70;;;;;;;12.98;44.79;102555.94;5034661;28;20508;-59
2023/05/18 08:58:43;;;;;;;12.40;2.83;;;;;;;12.99;45.23;102561.19;5045237;28;20080;-60
2023/05/18 09:01:10;;;;;;;8.00;2.42;;;;;;;13.08;44.69;102567.16;5050609;28;20044;-59
2023/05/18 09:03:38;;;;;;;6.30;2.38;;;;;;;12.92;45.60;102561.44;5072921;28;20099;-59
2023/05/18 09:06:06;;;;;;;6.05;1.65;;;;;;;13.17;44.14;102567.78;5066524;28;20053;-59
2023/05/18 09:08:33;;;;;;;9.25;2.00;;;;;;;13.27;44.46;102571.06;5065495;28;20470;-59
2023/05/18 09:11:01;;;;;;;9.85;1.90;;;;;;;13.39;43.93;102560.13;5057488;28;20595;-59
2023/05/18 09:13:29;;;;;;;14.95;3.13;;;;;;;13.53;43.28;102559.72;5056854;28;20443;-59
2023/05/18 09:15:55;;;;;;;8.52;1.95;;;;;;;13.72;42.88;102562.72;5076619;28;20040;-59
2023/05/18 09:18:22;;;;;;;14.52;2.00;;;;;;;13.33;43.20;102568.28;5076313;28;20052;-59
2023/05/18 09:20:52;;;;;;;11.40;2.28;;;;;;;13.73;42.92;102563.56;5074299;28;20444;-59
2023/05/18 09:23:19;;;;;;;12.80;2.47;;;;;;;13.80;42.59;102562.47;5074216;28;20135;-59
2023/05/18 09:25:48;;;;;;;27.52;3.70;;;;;;;13.51;42.16;102550.06;5058770;28;20059;-59
2023/05/18 09:28:34;;;;;;;17.55;3.70;;;;;;;13.67;42.55;102546.03;5059479;28;20058;-60
2023/05/18 09:31:00;;;;;;;11.93;2.78;;;;;;;13.94;42.09;102549.66;5075241;28;20067;-59
2023/05/18 09:33:35;;;;;;;11.40;1.80;;;;;;;14.30;40.91;102538.75;5072660;28;20714;-59
2023/05/18 09:36:07;;;;;;;11.25;2.22;;;;;;;14.58;40.84;102545.81;5075562;28;20036;-59
2023/05/18 09:38:44;;;;;;;15.13;2.85;;;;;;;15.11;40.26;102542.19;5075344;28;20084;-59
2023/05/18 09:41:17;;;;;;;20.95;4.30;;;;;;;14.56;40.92;102536.13;5056983;28;20041;-59
2023/05/18 09:43:47;;;;;;;13.55;2.50;;;;;;;14.81;40.49;102531.72;5068444;28;20563;-59
2023/05/18 09:46:13;;;;;;;21.50;3.78;;;;;;;14.79;40.75;102535.34;5057627;28;20087;-59
2023/05/18 09:48:42;;;;;;;13.38;2.13;;;;;;;14.03;41.50;102537.84;5068508;28;20045;-59
2023/05/18 09:51:14;;;;;;;7.10;2.03;;;;;;;13.92;41.40;102539.97;5074526;28;20044;-59
2023/05/18 09:54:05;;;;;;;14.20;1.75;;;;;;;14.01;41.52;102538.78;5074925;28;20044;-60
2023/05/18 09:56:35;;;;;;;12.07;2.13;;;;;;;14.48;40.93;102531.94;5075171;28;20044;-58
2023/05/18 09:59:13;;;;;;;17.27;2.35;;;;;;;14.47;39.31;102535.50;5074220;28;20638;-59
2023/05/18 10:01:55;;;;;;;8.80;2.05;;;;;;;14.64;40.08;102539.41;5075851;28;20751;-59
2023/05/18 10:04:22;;;;;;;15.45;2.10;;;;;;;14.75;39.98;102531.94;5074242;28;20045;-59
2023/05/18 10:06:49;;;;;;;23.65;3.63;;;;;;;14.52;39.90;102529.19;5056952;28;20477;-59
2023/05/18 10:09:16;;;;;;;16.33;3.50;;;;;;;14.57;40.62;102529.88;5056299;28;20056;-59
2023/05/18 10:11:43;;;;;;;22.38;3.15;;;;;;;14.68;40.61;102530.44;5053700;28;20049;-59
2023/05/18 10:14:10;;;;;;;14.80;3.75;;;;;;;15.19;39.38;102526.81;5071794;28;20048;-59
2023/05/18 10:16:37;;;;;;;16.35;2.17;;;;;;;14.92;39.74;102522.47;5070979;28;20048;-59
2023/05/18 10:19:05;;;;;;;17.67;3.75;;;;;;;15.23;39.24;102517.78;5073972;28;20064;-59
2023/05/18 10:21:34;;;;;;;9.32;1.73;;;;;;;14.93;39.25;102521.56;5054536;28;20052;-59
2023/05/18 10:24:04;;;;;;;16.98;2.40;;;;;;;14.90;39.69;102508.38;5073809;28;20068;-59
2023/05/18 10:26:37;;;;;;;7.22;1.77;;;;;;;14.83;39.74;102513.91;5071563;28;20049;-59
2023/05/18 10:29:05;;;;;;;12.32;1.63;;;;;;;14.84;40.12;102510.31;5078167;28;20049;-59
2023/05/18 10:31:34;;;;;;;7.45;1.20;;;;;;;15.29;39.37;102511.34;5057755;28;20117;-59
2023/05/18 10:34:02;;;;;;;8.50;1.58;;;;;;;14.70;39.04;102509.94;5072822;28;20048;-60
2023/05/18 10:36:31;;;;;;;10.23;1.85;;;;;;;15.57;37.68;102505.81;5069859;28;20140;-59
2023/05/18 10:38:59;;;;;;;12.85;2.67;;;;;;;15.70;37.09;102505.34;5073337;28;20063;-59
2023/05/18 10:41:27;;;;;;;9.77;2.20;;;;;;;15.99;36.81;102490.00;5062412;28;20045;-59
2023/05/18 10:43:54;;;;;;;7.90;1.88;;;;;;;15.74;37.30;102501.63;5072126;28;20072;-59
2023/05/18 10:46:25;;;;;;;19.08;2.42;;;;;;;15.85;37.91;102494.09;5073506;28;20061;-59
2023/05/18 10:48:52;;;;;;;15.23;3.55;;;;;;;16.31;36.07;102492.22;5077074;28;20052;-59
2023/05/18 10:51:20;;;;;;;13.07;2.10;;;;;;;15.66;36.36;102493.06;5063086;28;20059;-59
2023/05/18 10:53:47;;;;;;;13.27;1.80;;;;;;;14.32;38.84;102490.81;5071785;28;20048;-60
2023/05/18 10:56:17;;;;;;;7.60;1.58;;;;;;;13.73;40.28;102497.13;5073283;28;20072;-58
2023/05/18 10:58:45;;;;;;;4.30;2.08;;;;;;;16.79;35.21;102484.81;5073644;28;20072;-58
2023/05/18 11:01:12;;;;;;;14.70;1.75;;;;;;;16.78;35.15;102485.75;5055519;28;20072;-59
2023/05/18 11:03:40;;;;;;;10.38;1.90;;;;;;;16.64;35.39;102486.38;5071820;28;20052;-59
2023/05/18 11:06:11;;;;;;;13.65;2.47;;;;;;;18.09;32.70;102487.66;5070039;28;20040;-59
2023/05/18 11:08:49;;;;;;;12.57;1.50;;;;;;;19.12;31.29;102484.16;5073654;28;20129;-59
2023/05/18 11:11:16;;;;;;;39.75;4.82;;;;;;;18.96;30.64;102478.78;5071132;28;20052;-59
2023/05/18 11:13:50;;;;;;;6.28;1.20;;;;;;;16.82;33.49;102487.34;5049154;28;20059;-59
2023/05/18 11:16:19;;;;;;;7.13;1.63;;;;;;;18.96;30.53;102481.47;5053635;28;20122;-59
2023/05/18 11:18:51;;;;;;;7.93;1.40;;;;;;;19.60;29.52;102470.81;5054194;28;20143;-59
2023/05/18 11:21:24;;;;;;;;;;;;;;;20.90;27.69;102472.09;5072158;28;20055;-59
2023/05/18 11:24:18;;;;;;;7.05;1.50;;;;;;;20.84;27.42;102472.47;5070210;28;19926;-60
2023/05/18 11:26:48;;;;;;;8.88;2.40;;;;;;;18.28;31.07;102476.06;5079239;28;20051;-60
2023/05/18 11:29:34;;;;;;;10.13;1.73;;;;;;;16.55;34.41;102473.41;5076560;28;20101;-60
2023/05/18 11:32:01;;;;;;;9.45;1.52;;;;;;;15.68;35.69;102472.56;5075391;28;20443;-61
2023/05/18 11:34:46;;;;;;;7.65;1.58;;;;;;;15.75;35.57;102474.91;5075945;28;20052;-58